createdAt,value
2022-12-27T00:10:02.895Z,1028.93
2022-12-27T01:07:04.231Z,1029.2
2022-12-27T03:02:07.433Z,1030.01
2022-12-27T06:23:33.018Z,1030.59
2022-12-27T06:52:21.868Z,1030.74
2022-12-27T07:21:05.720Z,1030.81
2022-12-27T07:49:47.989Z,1031.06
2022-12-27T08:18:23.070Z,1031.22
2022-12-27T08:47:05.919Z,1031.16
2022-12-27T09:15:40.342Z,1031.3
2022-12-27T09:44:15.837Z,1031.42
2022-12-27T10:12:57.093Z,1031.48
2022-12-27T10:41:32.670Z,1031.21
2022-12-27T11:10:10.681Z,1031.13
2022-12-27T11:38:51.004Z,1031.08
2022-12-27T12:07:28.637Z,1030.75
2022-12-27T12:36:05.408Z,1030.63
2022-12-27T13:04:42.703Z,1030.55
2022-12-27T13:33:12.792Z,1030.39
2022-12-27T14:01:47.977Z,1030.26
2022-12-27T14:30:19.213Z,1030.05
2022-12-27T14:58:44.751Z,1029.98
2022-12-27T15:27:21.089Z,1029.8
2022-12-27T15:55:51.333Z,1029.52
2022-12-27T16:24:31.592Z,1029.71
2022-12-27T16:53:02.837Z,1029.7
2022-12-27T17:21:36.521Z,1029.46
2022-12-27T17:50:14.367Z,1029.32
2022-12-27T18:18:49.546Z,1029
2022-12-27T18:47:34.058Z,1028.72
2022-12-27T19:16:02.870Z,1028.61
2022-12-27T19:44:40.312Z,1028.29
2022-12-27T20:13:16.342Z,1028.25
2022-12-27T20:42:00.387Z,1028.09
2022-12-27T21:10:38.646Z,1027.88
2022-12-27T21:39:26.712Z,1027.67
2022-12-27T22:08:03.169Z,1027.35
2022-12-27T22:36:46.157Z,1027.4
2022-12-27T23:05:24.074Z,1027.12
2022-12-27T23:34:10.445Z,1026.95
